松山國際航空站 - 塔臺

METAR RCSS 271100Z VRB06KT 9999 FEW008 BKN035 BKN060 22/18 Q1022 NOSIG RMK A3020=

站台狀態:Offline
最後更新:2020-11-27 19:00:01